Coltons Point, Maryland
Current Conditions -  °F | °C
As of 9:38 AM on Saturday 25 Oct 2014 (Local Time) from K2W6 Reporting Station
Clear Clear  
Wind Chill: 54°   Ceiling: Unl
Heat Index: 54°   Visibility: 10mi
Dew Point: 41°   Wind: 5mph
Humidity: 62%   Direction: 280°W
Pressure: 29.98"   Gusts: NA
Location:  38.22°N, 76.75°W
Report Text: K2W6 251338Z AUTO 28004KT 10SM CLR 12/05 A2998 RMK AO1
Loading
Personal Weather Stations






























Interactive Weather Map
Tropical Storm Tracking
New forecast layout! Learn more

10-Day Weather Forecast

Advertisements
Track Severe Weather on mobile